Time;durP1;ratioP1;P1;durP2;ratioP2;P2;SDS_P1;SDS_P2;PMS_P1;PMS_P2;Temp;Humidity;BMP_temperature;BMP_pressure;BME280_temperature;BME280_humidity;BME280_pressure;Samples;Min_cycle;Max_cycle;Signal;HPM_P1;HPM_P2
2023/03/22 00:01:59;;;;;;;;;;;;;;;5.29;100.00;96587.08;109215;1265;23823;-83
2023/03/22 00:04:30;;;;;;;;;;;;;;;5.31;100.00;96589.24;109182;1273;22842;-83
2023/03/22 00:06:59;;;;;;;;;;;;;;;5.31;100.00;96584.35;109191;1265;22499;-83
2023/03/22 00:09:28;;;;;;;;;;;;;;;5.24;100.00;96585.34;109198;1273;22570;-83
2023/03/22 00:11:58;;;;;;;;;;;;;;;5.16;100.00;96581.86;109176;1273;24195;-83
2023/03/22 00:14:27;;;;;;;;;;;;;;;5.12;99.98;96579.19;109188;1269;22436;-83
2023/03/22 00:16:56;;;;;;;;;;;;;;;5.12;99.96;96574.40;109186;1269;25348;-83
2023/03/22 00:19:27;;;;;;;;;;;;;;;5.13;99.94;96573.73;109215;1273;22492;-84
2023/03/22 00:21:59;;;;;;;;;;;;;;;5.03;99.47;96567.34;109264;1273;22666;-84
2023/03/22 00:24:28;;;;;;;;;;;;;;;4.94;99.81;96564.52;109154;1265;22557;-83
2023/03/22 00:26:59;;;;;;;;;;;;;;;4.81;99.89;96569.54;109188;1266;22492;-83
2023/03/22 00:29:28;;;;;;;;;;;;;;;4.64;99.78;96569.62;109265;1272;22519;-83
2023/03/22 00:31:57;;;;;;;;;;;;;;;4.58;100.00;96570.10;109267;1265;22628;-84
2023/03/22 00:34:30;;;;;;;;;;;;;;;4.54;100.00;96569.80;109158;1273;22532;-83
2023/03/22 00:36:59;;;;;;;;;;;;;;;4.47;100.00;96564.42;109185;1266;22628;-83
2023/03/22 00:39:29;;;;;;;;;;;;;;;4.43;100.00;96564.33;109212;1273;22619;-83
2023/03/22 00:41:58;;;;;;;;;;;;;;;4.43;100.00;96561.64;109193;1273;22638;-83
2023/03/22 00:44:27;;;;;;;;;;;;;;;4.43;100.00;96558.76;109174;1269;22743;-83
2023/03/22 00:46:57;;;;;;;;;;;;;;;4.41;100.00;96556.20;109190;1266;22535;-83
2023/03/22 00:49:26;;;;;;;;;;;;;;;4.36;100.00;96556.08;109228;1273;22517;-83
2023/03/22 00:51:55;;;;;;;;;;;;;;;4.25;100.00;96551.62;109200;1273;22491;-83
2023/03/22 00:54:25;;;;;;;;;;;;;;;4.31;100.00;96551.70;109123;1273;24294;-83
2023/03/22 00:56:55;;;;;;;;;;;;;;;4.30;100.00;96553.57;109189;1272;22612;-83
2023/03/22 00:59:25;;;;;;;;;;;;;;;4.20;100.00;96553.27;109205;1273;24145;-83
2023/03/22 01:01:56;;;;;;;;;;;;;;;4.04;99.98;96550.91;109189;1272;22587;-83
2023/03/22 01:04:26;;;;;;;;;;;;;;;3.94;100.00;96550.38;109179;1273;22494;-83
2023/03/22 01:07:00;;;;;;;;;;;;;;;3.88;100.00;96548.85;109180;1266;22426;-83
2023/03/22 01:09:32;;;;;;;;;;;;;;;3.81;100.00;96544.51;109225;1273;22525;-83
2023/03/22 01:12:02;;;;;;;;;;;;;;;3.77;100.00;96547.20;109195;1273;22527;-84
2023/03/22 01:14:31;;;;;;;;;;;;;;;3.63;99.90;96544.65;109183;1269;28560;-83
2023/03/22 01:17:00;;;;;;;;;;;;;;;3.46;99.92;96546.44;109173;1273;22546;-84
2023/03/22 01:19:30;;;;;;;;;;;;;;;3.49;100.00;96541.36;109240;1273;22537;-83
2023/03/22 01:21:59;;;;;;;;;;;;;;;3.65;100.00;96536.80;109219;1273;25048;-84
2023/03/22 01:24:29;;;;;;;;;;;;;;;3.75;100.00;96538.51;109148;1269;23289;-83
2023/03/22 01:26:58;;;;;;;;;;;;;;;3.77;100.00;96534.04;109198;1273;22633;-84
2023/03/22 01:29:28;;;;;;;;;;;;;;;3.77;100.00;96531.25;109214;1273;22689;-84
2023/03/22 01:31:57;;;;;;;;;;;;;;;3.82;100.00;96531.20;109226;1266;24484;-84
2023/03/22 01:34:27;;;;;;;;;;;;;;;3.86;100.00;96526.91;109209;1272;22539;-83
2023/03/22 01:36:56;;;;;;;;;;;;;;;3.88;100.00;96528.77;109205;1266;22533;-83
2023/03/22 01:39:26;;;;;;;;;;;;;;;3.92;100.00;96526.04;109206;1265;23041;-83
2023/03/22 01:41:55;;;;;;;;;;;;;;;3.99;100.00;96526.02;109226;1273;22444;-83
2023/03/22 01:44:29;;;;;;;;;;;;;;;4.00;100.00;96524.98;109226;1272;25233;-84
2023/03/22 01:46:59;;;;;;;;;;;;;;;3.99;100.00;96515.58;109214;1269;22628;-84
2023/03/22 01:49:30;;;;;;;;;;;;;;;4.00;100.00;96515.38;109199;1273;22529;-84
2023/03/22 01:52:02;;;;;;;;;;;;;;;4.01;100.00;96513.83;109202;1273;22532;-83
2023/03/22 01:54:35;;;;;;;;;;;;;;;4.01;100.00;96512.56;109188;1272;30041;-84
2023/03/22 01:57:06;;;;;;;;;;;;;;;3.98;100.00;96513.48;109235;1272;25319;-83
2023/03/22 01:59:35;;;;;;;;;;;;;;;4.02;100.00;96511.09;109225;1269;22498;-83
2023/03/22 02:02:04;;;;;;;;;;;;;;;4.07;100.00;96509.42;109228;1265;22565;-83
2023/03/22 02:04:34;;;;;;;;;;;;;;;4.07;100.00;96506.10;109190;1273;27430;-84
2023/03/22 02:07:08;;;;;;;;;;;;;;;4.18;100.00;96506.89;109141;1266;22494;-83
2023/03/22 02:09:41;;;;;;;;;;;;;;;4.29;100.00;96506.48;109192;1273;22466;-83
2023/03/22 02:12:17;;;;;;;;;;;;;;;4.38;100.00;96503.73;109270;1266;22433;-84
2023/03/22 02:15:02;;;;;;;;;;;;;;;4.52;100.00;96500.14;109199;1272;22487;-84
2023/03/22 02:17:40;;;;;;;;;;;;;;;4.63;100.00;96501.02;109199;1265;25252;-84
2023/03/22 02:20:27;;;;;;;;;;;;;;;4.69;100.00;96495.80;109174;1266;22498;-84
2023/03/22 02:23:14;;;;;;;;;;;;;;;4.84;100.00;96494.93;109209;1266;22673;-84
2023/03/22 02:26:03;;;;;;;;;;;;;;;4.98;100.00;96490.69;109238;1273;23748;-84
2023/03/22 02:28:38;;;;;;;;;;;;;;;5.08;100.00;96492.08;109185;1273;25243;-83
2023/03/22 02:31:25;;;;;;;;;;;;;;;5.13;100.00;96491.22;109149;1273;23197;-85
2023/03/22 02:34:04;;;;;;;;;;;;;;;5.15;100.00;96489.88;109181;1272;22518;-83
2023/03/22 02:36:48;;;;;;;;;;;;;;;5.14;100.00;96487.34;109204;1273;23107;-84
2023/03/22 02:39:22;;;;;;;;;;;;;;;5.09;100.00;96485.26;109199;1266;22673;-83
2023/03/22 02:42:01;;;;;;;;;;;;;;;5.05;100.00;96484.09;109203;1272;24205;-83
2023/03/22 02:44:39;;;;;;;;;;;;;;;5.01;100.00;96478.95;109236;1261;22887;-83
2023/03/22 02:47:13;;;;;;;;;;;;;;;4.96;100.00;96475.80;109195;1273;22545;-84
2023/03/22 02:49:46;;;;;;;;;;;;;;;4.89;100.00;96475.39;109204;1266;22491;-83
2023/03/22 02:52:18;;;;;;;;;;;;;;;4.83;100.00;96470.70;109174;1265;25392;-83
2023/03/22 02:54:50;;;;;;;;;;;;;;;4.80;100.00;96468.27;109209;1273;22485;-83
2023/03/22 02:57:25;;;;;;;;;;;;;;;4.76;100.00;96464.77;109198;1266;25398;-83
2023/03/22 02:59:56;;;;;;;;;;;;;;;4.69;100.00;96464.91;109270;1273;23266;-83
2023/03/22 03:02:26;;;;;;;;;;;;;;;4.62;100.00;96465.40;109194;1267;24971;-83
2023/03/22 03:04:56;;;;;;;;;;;;;;;4.58;100.00;96465.56;109228;1273;22526;-84
2023/03/22 03:07:27;;;;;;;;;;;;;;;4.56;100.00;96463.70;109229;1273;22490;-83
2023/03/22 03:09:57;;;;;;;;;;;;;;;4.54;100.00;96464.73;108188;1266;1393779;-85
2023/03/22 03:12:29;;;;;;;;;;;;;;;4.52;100.00;96462.88;109238;1266;23246;-83
2023/03/22 03:14:58;;;;;;;;;;;;;;;4.51;100.00;96463.48;109205;1269;22537;-83
2023/03/22 03:17:35;;;;;;;;;;;;;;;4.47;100.00;96468.04;109234;1272;23851;-83
2023/03/22 03:20:15;;;;;;;;;;;;;;;4.45;100.00;96468.17;109186;1272;24037;-84
2023/03/22 03:22:50;;;;;;;;;;;;;;;4.42;100.00;96467.66;109184;1273;22540;-83
2023/03/22 03:25:24;;;;;;;;;;;;;;;4.38;100.00;96467.82;109181;1266;22492;-83
2023/03/22 03:27:59;;;;;;;;;;;;;;;4.36;100.00;96464.91;109224;1269;22468;-83
2023/03/22 03:30:31;;;;;;;;;;;;;;;4.34;100.00;96466.44;109160;1273;24210;-84
2023/03/22 03:33:03;;;;;;;;;;;;;;;4.33;100.00;96465.06;109157;1265;22500;-84
2023/03/22 03:35:36;;;;;;;;;;;;;;;4.27;100.00;96466.83;109230;1266;23681;-85
2023/03/22 03:38:08;;;;;;;;;;;;;;;4.19;100.00;96465.98;109184;1273;22557;-84
2023/03/22 03:40:40;;;;;;;;;;;;;;;4.13;99.94;96465.11;109238;1269;22446;-85
2023/03/22 03:43:09;;;;;;;;;;;;;;;4.08;99.81;96464.96;109221;1265;25309;-84
2023/03/22 03:45:40;;;;;;;;;;;;;;;4.08;99.99;96465.66;109163;1273;22599;-84
2023/03/22 03:48:13;;;;;;;;;;;;;;;4.09;100.00;96468.95;109246;1273;22534;-84
2023/03/22 03:50:43;;;;;;;;;;;;;;;4.10;100.00;96466.39;109207;1273;25389;-84
2023/03/22 03:53:12;;;;;;;;;;;;;;;4.06;100.00;96469.45;109153;1273;23291;-85
2023/03/22 03:55:44;;;;;;;;;;;;;;;4.00;99.88;96472.67;109211;1273;25300;-83
2023/03/22 03:58:16;;;;;;;;;;;;;;;3.98;99.99;96472.23;109256;1273;22443;-84
2023/03/22 04:00:46;;;;;;;;;;;;;;;3.99;100.00;96473.51;109230;1273;22535;-85
2023/03/22 04:03:15;;;;;;;;;;;;;;;3.98;100.00;96468.41;109201;1266;22488;-85
2023/03/22 04:05:45;;;;;;;;;;;;;;;3.97;100.00;96464.41;109219;1273;22486;-85
2023/03/22 04:08:14;;;;;;;;;;;;;;;3.93;100.00;96465.91;109192;1273;24005;-85
2023/03/22 04:10:48;;;;;;;;;;;;;;;3.90;100.00;96469.05;109176;1273;22718;-85
2023/03/22 04:13:20;;;;;;;;;;;;;;;3.84;99.98;96470.71;109205;1273;22537;-85
2023/03/22 04:15:52;;;;;;;;;;;;;;;3.78;99.79;96472.43;109205;1273;22499;-85
2023/03/22 04:18:21;;;;;;;;;;;;;;;3.76;99.82;96472.88;109181;1266;22559;-85
2023/03/22 04:20:52;;;;;;;;;;;;;;;3.82;100.00;96471.25;109219;1273;22535;-86
2023/03/22 04:23:22;;;;;;;;;;;;;;;3.98;100.00;96471.23;109171;1271;22500;-85
2023/03/22 04:25:51;;;;;;;;;;;;;;;4.06;100.00;96473.60;109208;1273;22786;-85
2023/03/22 04:28:20;;;;;;;;;;;;;;;4.13;100.00;96474.14;109163;1269;22486;-85
2023/03/22 04:30:51;;;;;;;;;;;;;;;4.17;100.00;96476.17;109193;1273;22518;-85
2023/03/22 04:33:21;;;;;;;;;;;;;;;4.20;100.00;96475.53;109151;1272;22485;-85
2023/03/22 04:35:55;;;;;;;;;;;;;;;4.31;100.00;96471.65;109185;1269;24974;-86
2023/03/22 04:38:25;;;;;;;;;;;;;;;4.34;100.00;96476.00;109165;1269;22601;-85
2023/03/22 04:40:57;;;;;;;;;;;;;;;4.31;100.00;96473.60;109192;1273;23005;-85
2023/03/22 04:43:26;;;;;;;;;;;;;;;4.28;100.00;96476.45;109211;1271;22627;-85
2023/03/22 04:45:57;;;;;;;;;;;;;;;4.28;100.00;96476.98;109253;1272;24144;-85
2023/03/22 04:48:26;;;;;;;;;;;;;;;4.31;100.00;96473.96;109190;1269;22499;-85
2023/03/22 04:50:56;;;;;;;;;;;;;;;4.51;100.00;96474.66;109201;1273;22485;-85
2023/03/22 04:53:27;;;;;;;;;;;;;;;4.79;100.00;96481.64;109195;1273;22518;-85
2023/03/22 04:55:57;;;;;;;;;;;;;;;4.99;100.00;96490.42;109166;1265;25430;-85
2023/03/22 04:58:29;;;;;;;;;;;;;;;5.21;100.00;96488.77;109178;1266;22545;-85
2023/03/22 05:00:58;;;;;;;;;;;;;;;5.57;99.84;96484.78;109155;1273;22481;-86
2023/03/22 05:03:27;;;;;;;;;;;;;;;5.79;98.66;96485.35;109144;1273;24419;-86
2023/03/22 05:05:58;;;;;;;;;;;;;;;5.83;97.33;96483.80;109202;1253;22514;-86
2023/03/22 05:08:28;;;;;;;;;;;;;;;5.71;96.76;96485.96;109157;1269;22615;-86
2023/03/22 05:10:58;;;;;;;;;;;;;;;5.66;96.31;96488.45;109184;1273;22529;-87
2023/03/22 05:13:27;;;;;;;;;;;;;;;5.65;96.35;96489.77;109164;1269;24931;-85
2023/03/22 05:15:57;;;;;;;;;;;;;;;5.71;96.08;96493.80;109207;1273;22450;-86
2023/03/22 05:18:26;;;;;;;;;;;;;;;5.76;95.95;96489.47;109200;1273;22500;-85
2023/03/22 05:20:56;;;;;;;;;;;;;;;6.13;96.14;96494.86;109157;1273;22540;-86
2023/03/22 05:23:26;;;;;;;;;;;;;;;6.62;95.47;96492.38;109222;1273;22495;-84
2023/03/22 05:25:57;;;;;;;;;;;;;;;6.47;93.55;96491.33;109186;1273;22540;-84
2023/03/22 05:28:27;;;;;;;;;;;;;;;6.22;93.15;96496.13;109213;1269;22475;-84
2023/03/22 05:30:56;;;;;;;;;;;;;;;6.06;93.26;96495.76;109198;1273;22547;-84
2023/03/22 05:33:26;;;;;;;;;;;;;;;6.01;93.49;96493.45;109155;1273;24298;-84
2023/03/22 05:35:56;;;;;;;;;;;;;;;5.93;93.03;96494.02;109206;1268;22511;-84
2023/03/22 05:38:25;;;;;;;;;;;;;;;5.90;93.14;96493.98;109174;1273;23786;-83
2023/03/22 05:40:54;;;;;;;;;;;;;;;5.93;92.95;96495.61;109164;1273;22584;-83
2023/03/22 05:43:24;;;;;;;;;;;;;;;5.93;92.71;96496.19;109229;1271;24110;-83
2023/03/22 05:45:53;;;;;;;;;;;;;;;5.90;92.44;96496.48;109254;1272;22489;-83
2023/03/22 05:48:24;;;;;;;;;;;;;;;5.89;92.44;96501.11;109167;1273;24459;-84
2023/03/22 05:50:53;;;;;;;;;;;;;;;6.42;93.50;96505.93;109193;1273;22566;-83
2023/03/22 05:53:22;;;;;;;;;;;;;;;7.69;93.60;96505.48;109186;1266;22493;-84
2023/03/22 05:55:56;;;;;;;;;;;;;;;8.58;90.63;96502.16;109181;1273;23267;-82
2023/03/22 05:58:27;;;;;;;;;;;;;;;9.58;89.67;96500.33;109201;1273;22533;-82
2023/03/22 06:00:59;;;;;;;;;;;;;;;10.42;86.25;96504.71;109216;1273;24203;-83
2023/03/22 06:03:29;;;;;;;;;;;;;;;11.24;85.00;96501.44;109197;1269;23764;-83
2023/03/22 06:05:59;;;;;;;;;;;;;;;11.96;81.70;96500.52;109132;1273;23871;-83
2023/03/22 06:08:29;;;;;;;;;;;;;;;11.72;77.22;96505.80;109173;1273;22526;-83
2023/03/22 06:10:58;;;;;;;;;;;;;;;11.04;76.90;96508.84;109219;1266;22504;-83
2023/03/22 06:13:28;;;;;;;;;;;;;;;10.56;75.96;96506.80;109200;1273;24211;-82
2023/03/22 06:15:58;;;;;;;;;;;;;;;10.04;76.42;96504.52;109200;1269;24244;-83
2023/03/22 06:18:28;;;;;;;;;;;;;;;9.45;76.50;96506.03;109201;1272;24343;-83
2023/03/22 06:20:57;;;;;;;;;;;;;;;8.90;77.27;96508.91;109197;1273;22505;-82
2023/03/22 06:23:27;;;;;;;;;;;;;;;8.40;77.72;96504.98;109154;1266;22517;-82
2023/03/22 06:25:56;;;;;;;;;;;;;;;7.87;79.20;96510.90;109165;1273;22521;-82
2023/03/22 06:28:28;;;;;;;;;;;;;;;7.54;80.61;96504.53;109221;1273;24210;-83
2023/03/22 06:30:58;;;;;;;;;;;;;;;7.24;82.14;96511.62;109162;1273;23244;-83
2023/03/22 06:33:27;;;;;;;;;;;;;;;7.13;83.17;96508.46;109176;1273;22529;-83
2023/03/22 06:36:00;;;;;;;;;;;;;;;7.14;84.47;96514.53;109178;1273;22446;-83
2023/03/22 06:38:30;;;;;;;;;;;;;;;7.29;85.18;96515.11;109155;1269;25262;-82
2023/03/22 06:40:59;;;;;;;;;;;;;;;7.32;84.92;96514.76;109187;1273;24415;-82
2023/03/22 06:43:29;;;;;;;;;;;;;;;7.25;84.76;96506.45;109207;1267;22488;-82
2023/03/22 06:45:58;;;;;;;;;;;;;;;7.25;85.36;96511.83;109242;1272;23863;-82
2023/03/22 06:48:27;;;;;;;;;;;;;;;7.30;85.54;96518.85;109147;1273;22546;-81
2023/03/22 06:50:58;;;;;;;;;;;;;;;7.40;85.90;96509.30;109176;1265;23169;-81
2023/03/22 06:53:27;;;;;;;;;;;;;;;7.53;85.58;96506.85;109209;1273;24704;-82
2023/03/22 06:55:58;;;;;;;;;;;;;;;7.62;85.28;96502.16;109204;1273;22461;-81
2023/03/22 06:58:36;;;;;;;;;;;;;;;7.72;85.64;96497.42;109189;1266;22505;-82
2023/03/22 07:01:09;;;;;;;;;;;;;;;7.85;85.81;96501.28;109190;1273;22545;-81
2023/03/22 07:03:38;;;;;;;;;;;;;;;7.94;85.38;96499.83;109162;1266;25561;-81
2023/03/22 07:06:08;;;;;;;;;;;;;;;8.05;84.53;96499.62;109193;1273;25372;-81
2023/03/22 07:08:38;;;;;;;;;;;;;;;8.23;84.53;96500.34;109184;1273;22470;-82
2023/03/22 07:11:07;;;;;;;;;;;;;;;8.44;84.36;96501.40;109202;1273;22544;-81
2023/03/22 07:13:37;;;;;;;;;;;;;;;8.57;84.05;96500.06;109145;1273;22476;-81
2023/03/22 07:16:08;;;;;;;;;;;;;;;8.64;82.83;96506.02;109181;1267;22763;-81
2023/03/22 07:18:37;;;;;;;;;;;;;;;8.75;81.86;96498.17;109131;1266;22598;-81
2023/03/22 07:21:09;;;;;;;;;;;;;;;8.76;80.68;96500.50;109186;1269;22516;-81
2023/03/22 07:23:38;;;;;;;;;;;;;;;8.71;79.98;96499.66;109187;1273;22537;-81
2023/03/22 07:26:07;;;;;;;;;;;;;;;8.61;79.49;96500.75;109191;1272;22500;-81
2023/03/22 07:28:40;;;;;;;;;;;;;;;8.50;79.27;96501.98;109183;1273;23990;-81
2023/03/22 07:31:10;;;;;;;;;;;;;;;8.43;79.85;96506.41;109182;1269;22554;-81
2023/03/22 07:33:41;;;;;;;;;;;;;;;8.44;80.31;96508.27;109164;1273;22716;-81
2023/03/22 07:36:10;;;;;;;;;;;;;;;8.47;80.69;96513.87;109165;1269;22512;-81
2023/03/22 07:38:40;;;;;;;;;;;;;;;8.51;80.42;96508.36;109213;1273;22522;-81
2023/03/22 07:41:09;;;;;;;;;;;;;;;8.55;80.92;96505.35;109184;1273;22517;-81
2023/03/22 07:43:40;;;;;;;;;;;;;;;8.65;81.14;96511.73;109240;1266;29576;-81
2023/03/22 07:46:09;;;;;;;;;;;;;;;8.84;80.67;96507.45;109212;1273;25470;-81
2023/03/22 07:48:39;;;;;;;;;;;;;;;9.02;80.55;96506.06;109183;1273;22489;-81
2023/03/22 07:51:09;;;;;;;;;;;;;;;9.07;79.34;96507.95;109201;1267;22564;-80
2023/03/22 07:53:38;;;;;;;;;;;;;;;9.03;78.83;96505.23;109189;1269;22565;-81
2023/03/22 07:56:12;;;;;;;;;;;;;;;9.03;78.93;96505.17;109154;1269;22507;-81
2023/03/22 07:58:42;;;;;;;;;;;;;;;9.09;78.92;96507.09;109190;1272;22492;-80
2023/03/22 08:01:11;;;;;;;;;;;;;;;9.19;78.85;96505.79;109182;1273;22458;-81
2023/03/22 08:03:41;;;;;;;;;;;;;;;9.21;78.85;96508.37;109147;1273;24224;-80
2023/03/22 08:06:11;;;;;;;;;;;;;;;9.23;78.15;96503.55;109195;1272;22579;-80
2023/03/22 08:08:40;;;;;;;;;;;;;;;9.27;77.83;96503.73;109190;1273;22482;-81
2023/03/22 08:11:11;;;;;;;;;;;;;;;9.27;77.14;96502.83;109228;1273;23771;-81
2023/03/22 08:13:40;;;;;;;;;;;;;;;9.26;77.16;96497.82;109164;1273;22520;-80
2023/03/22 08:16:10;;;;;;;;;;;;;;;9.33;77.79;96493.19;109190;1269;22501;-81
2023/03/22 08:18:40;;;;;;;;;;;;;;;9.43;77.73;96491.07;109201;1269;23014;-80
2023/03/22 08:21:09;;;;;;;;;;;;;;;9.42;76.34;96490.91;109186;1269;22615;-81
2023/03/22 08:23:38;;;;;;;;;;;;;;;9.71;76.67;96490.25;109153;1273;22540;-80
2023/03/22 08:26:08;;;;;;;;;;;;;;;10.45;75.47;96488.89;109155;1269;22491;-80
2023/03/22 08:28:37;;;;;;;;;;;;;;;12.17;74.22;96483.60;109157;1273;25243;-80
2023/03/22 08:31:14;;;;;;;;;;;;;;;14.00;71.52;96482.32;109193;1273;22456;-81
2023/03/22 08:33:44;;;;;;;;;;;;;;;14.62;65.53;96479.30;109188;1273;31402;-81
2023/03/22 08:36:16;;;;;;;;;;;;;;;14.79;65.66;96482.88;109215;1273;22507;-82
2023/03/22 08:38:46;;;;;;;;;;;;;;;15.98;65.60;96482.01;109213;1263;22489;-81
2023/03/22 08:41:16;;;;;;;;;;;;;;;16.30;61.44;96480.09;109178;1266;22447;-81
2023/03/22 08:43:45;;;;;;;;;;;;;;;16.10;60.64;96484.71;109207;1272;22514;-81
2023/03/22 08:46:14;;;;;;;;;;;;;;;15.63;60.78;96485.29;109187;1269;22599;-81
2023/03/22 08:48:49;;;;;;;;;;;;;;;15.35;61.06;96487.37;109167;1273;23988;-81
2023/03/22 08:51:20;;;;;;;;;;;;;;;15.04;61.16;96487.50;109185;1273;22623;-81
2023/03/22 08:53:49;;;;;;;;;;;;;;;14.91;60.98;96483.47;109167;1269;40245;-81
2023/03/22 08:56:21;;;;;;;;;;;;;;;14.79;61.77;96483.83;109177;1273;24147;-81
2023/03/22 08:58:51;;;;;;;;;;;;;;;15.32;62.80;96481.80;109170;1267;22562;-81
2023/03/22 09:01:20;;;;;;;;;;;;;;;15.56;61.61;96483.83;109181;1273;22539;-81
2023/03/22 09:03:50;;;;;;;;;;;;;;;15.36;60.60;96486.75;109174;1273;22622;-81
2023/03/22 09:06:19;;;;;;;;;;;;;;;14.98;60.32;96485.89;109186;1273;22433;-81
2023/03/22 09:08:51;;;;;;;;;;;;;;;14.76;61.22;96481.10;109196;1273;22666;-82
2023/03/22 09:11:21;;;;;;;;;;;;;;;15.38;61.41;96476.59;109141;1273;22546;-81
2023/03/22 09:13:51;;;;;;;;;;;;;;;15.56;60.35;96480.55;109163;1269;24226;-81
2023/03/22 09:16:20;;;;;;;;;;;;;;;15.39;58.55;96477.52;109181;1273;22572;-81
2023/03/22 09:18:50;;;;;;;;;;;;;;;14.97;58.41;96477.38;109199;1269;22493;-81
2023/03/22 09:21:20;;;;;;;;;;;;;;;14.84;60.00;96474.21;109220;1273;22724;-81
2023/03/22 09:23:50;;;;;;;;;;;;;;;15.05;60.22;96467.66;109158;1273;22546;-81
2023/03/22 09:26:19;;;;;;;;;;;;;;;15.10;58.96;96460.36;109163;1273;22497;-81
2023/03/22 09:28:49;;;;;;;;;;;;;;;14.79;58.84;96461.59;109189;1273;24285;-81
2023/03/22 09:31:19;;;;;;;;;;;;;;;14.60;58.95;96455.91;109179;1267;22453;-81
2023/03/22 09:33:49;;;;;;;;;;;;;;;14.37;58.71;96450.62;109173;1273;27053;-81
2023/03/22 09:36:18;;;;;;;;;;;;;;;14.18;58.74;96448.30;109192;1273;22515;-81
2023/03/22 09:38:48;;;;;;;;;;;;;;;14.39;59.69;96445.70;109174;1271;22501;-80
2023/03/22 09:41:21;;;;;;;;;;;;;;;14.59;59.72;96447.55;109176;1262;22538;-80
2023/03/22 09:43:53;;;;;;;;;;;;;;;14.53;58.76;96444.14;109207;1266;28003;-81
2023/03/22 09:46:29;;;;;;;;;;;;;;;14.48;59.07;96439.36;109193;1273;22547;-80
2023/03/22 09:49:00;;;;;;;;;;;;;;;14.49;58.93;96439.59;109150;1273;22486;-81
2023/03/22 09:51:33;;;;;;;;;;;;;;;14.42;58.74;96438.97;109190;1273;22520;-80
2023/03/22 09:54:05;;;;;;;;;;;;;;;14.34;58.92;96437.83;109213;1266;24253;-81
2023/03/22 09:56:34;;;;;;;;;;;;;;;14.42;59.06;96433.90;109169;1273;22515;-81
2023/03/22 09:59:08;;;;;;;;;;;;;;;14.50;59.00;96437.45;109211;1269;22545;-80
2023/03/22 10:01:41;;;;;;;;;;;;;;;14.48;59.37;96436.91;109198;1269;22649;-81
2023/03/22 10:04:27;;;;;;;;;;;;;;;14.38;58.64;96434.27;107828;1269;1781384;-81
2023/03/22 10:07:03;;;;;;;;;;;;;;;14.25;58.97;96432.05;109152;1269;22518;-81
2023/03/22 10:09:35;;;;;;;;;;;;;;;14.10;59.54;96428.20;109161;1269;22564;-80
2023/03/22 10:12:10;;;;;;;;;;;;;;;13.94;58.58;96428.22;109215;1267;25392;-80
2023/03/22 10:14:40;;;;;;;;;;;;;;;13.64;58.23;96424.83;109188;1273;23199;-80
2023/03/22 10:17:13;;;;;;;;;;;;;;;13.44;58.72;96419.76;109191;1267;22587;-80
2023/03/22 10:19:49;;;;;;;;;;;;;;;13.32;59.29;96424.60;109199;1269;23264;-81
2023/03/22 10:22:23;;;;;;;;;;;;;;;13.33;59.91;96431.27;109191;1266;22489;-80
2023/03/22 10:24:53;;;;;;;;;;;;;;;13.39;59.74;96426.08;109162;1272;22652;-80
2023/03/22 10:27:23;;;;;;;;;;;;;;;13.45;59.98;96426.00;109203;1269;22754;-80
2023/03/22 10:29:55;;;;;;;;;;;;;;;13.45;59.20;96423.55;109120;1273;23032;-80
2023/03/22 10:32:29;;;;;;;;;;;;;;;13.31;59.04;96426.25;109100;1275;22459;-80
2023/03/22 10:34:59;;;;;;;;;;;;;;;13.21;59.24;96426.45;109125;1269;22782;-80
2023/03/22 10:37:33;;;;;;;;;;;;;;;13.18;59.73;96428.80;109196;1273;22495;-80
2023/03/22 10:40:06;;;;;;;;;;;;;;;13.26;59.78;96426.15;109210;1273;23964;-80
2023/03/22 10:42:38;;;;;;;;;;;;;;;13.49;60.22;96423.09;109244;1273;25275;-80
2023/03/22 10:45:12;;;;;;;;;;;;;;;13.90;60.67;96423.98;109170;1273;22799;-80
2023/03/22 10:47:45;;;;;;;;;;;;;;;14.32;60.37;96421.95;109205;1273;23677;-80
2023/03/22 10:50:18;;;;;;;;;;;;;;;14.60;59.54;96424.17;109209;1268;22439;-80
2023/03/22 10:52:50;;;;;;;;;;;;;;;14.84;59.43;96415.55;109212;1273;24335;-80
2023/03/22 10:55:19;;;;;;;;;;;;;;;15.00;58.57;96414.34;109138;1273;22706;-80
2023/03/22 10:57:55;;;;;;;;;;;;;;;15.10;59.03;96412.09;109215;1273;22502;-80
2023/03/22 11:00:27;;;;;;;;;;;;;;;15.31;57.88;96413.54;109202;1269;22535;-80
2023/03/22 11:03:00;;;;;;;;;;;;;;;15.24;57.42;96409.18;109174;1273;31517;-80
2023/03/22 11:05:30;;;;;;;;;;;;;;;15.36;57.83;96407.59;109213;1269;22616;-80
2023/03/22 11:08:02;;;;;;;;;;;;;;;15.43;58.12;96403.77;109209;1273;22441;-80
2023/03/22 11:10:33;;;;;;;;;;;;;;;15.56;57.58;96405.73;109213;1273;22451;-80
2023/03/22 11:13:17;;;;;;;;;;;;;;;15.57;57.80;96401.39;107616;1273;2112455;-80
2023/03/22 11:15:54;;;;;;;;;;;;;;;15.57;56.81;96400.36;109203;1273;22603;-80
2023/03/22 11:18:25;;;;;;;;;;;;;;;15.52;57.08;96401.56;109231;1270;25383;-81
2023/03/22 11:20:56;;;;;;;;;;;;;;;15.54;56.23;96402.34;109181;1273;23643;-80
2023/03/22 11:23:27;;;;;;;;;;;;;;;15.38;55.86;96402.75;109196;1269;23845;-79
2023/03/22 11:25:59;;;;;;;;;;;;;;;15.22;55.32;96396.95;109190;1273;24000;-79
2023/03/22 11:28:34;;;;;;;;;;;;;;;15.09;55.65;96394.23;109211;1273;22493;-80
2023/03/22 11:31:05;;;;;;;;;;;;;;;15.01;55.54;96393.77;109184;1273;22632;-79
2023/03/22 11:33:35;;;;;;;;;;;;;;;14.97;55.48;96394.69;109174;1273;27018;-79
2023/03/22 11:36:15;;;;;;;;;;;;;;;14.94;55.46;96390.35;109212;1273;23013;-79
2023/03/22 11:38:45;;;;;;;;;;;;;;;14.79;54.88;96390.80;109227;1273;22455;-79
2023/03/22 11:41:20;;;;;;;;;;;;;;;14.77;55.46;96385.96;109202;1273;22526;-79
2023/03/22 11:43:53;;;;;;;;;;;;;;;14.88;55.71;96381.60;109185;1263;24905;-79
2023/03/22 11:46:23;;;;;;;;;;;;;;;14.95;54.76;96380.86;109159;1269;22568;-79
2023/03/22 11:48:56;;;;;;;;;;;;;;;14.92;54.92;96375.56;109176;1270;22534;-79
2023/03/22 11:51:28;;;;;;;;;;;;;;;14.92;55.15;96376.09;109221;1273;22628;-79
2023/03/22 11:54:03;;;;;;;;;;;;;;;15.11;55.98;96373.82;109156;1273;28229;-79
2023/03/22 11:56:34;;;;;;;;;;;;;;;15.20;54.58;96368.48;109161;1273;22514;-79
2023/03/22 11:59:06;;;;;;;;;;;;;;;15.05;53.89;96369.79;109219;1273;23685;-79
2023/03/22 12:01:39;;;;;;;;;;;;;;;14.93;54.14;96369.47;109197;1273;22468;-80
2023/03/22 12:04:11;;;;;;;;;;;;;;;14.84;54.01;96363.88;109202;1267;24096;-79
2023/03/22 12:06:42;;;;;;;;;;;;;;;14.78;54.53;96361.98;109212;1273;22493;-79
2023/03/22 12:09:18;;;;;;;;;;;;;;;14.68;54.37;96367.77;109198;1269;22507;-79
2023/03/22 12:11:51;;;;;;;;;;;;;;;14.56;54.78;96369.67;109160;1273;25211;-79
2023/03/22 12:14:23;;;;;;;;;;;;;;;14.51;55.05;96362.73;109175;1266;22628;-79
2023/03/22 12:16:56;;;;;;;;;;;;;;;14.50;54.89;96357.94;109238;1273;22619;-79
2023/03/22 12:19:36;;;;;;;;;;;;;;;14.48;54.93;96357.98;109202;1267;25933;-79
2023/03/22 12:22:10;;;;;;;;;;;;;;;14.46;55.30;96357.14;109225;1273;22444;-79
2023/03/22 12:24:40;;;;;;;;;;;;;;;14.51;56.13;96357.14;109180;1273;22693;-79
2023/03/22 12:27:16;;;;;;;;;;;;;;;14.60;56.11;96356.59;109235;1273;22531;-79
2023/03/22 12:29:52;;;;;;;;;;;;;;;14.71;55.78;96352.77;109275;1273;24221;-79
2023/03/22 12:32:24;;;;;;;;;;;;;;;14.85;55.93;96356.06;109196;1273;25909;-79
2023/03/22 12:34:53;;;;;;;;;;;;;;;14.93;55.44;96352.59;109212;1272;23799;-79
2023/03/22 12:37:26;;;;;;;;;;;;;;;14.90;55.15;96352.39;109199;1273;22507;-79
2023/03/22 12:39:58;;;;;;;;;;;;;;;14.93;55.45;96353.53;109183;1273;23668;-79
2023/03/22 12:42:32;;;;;;;;;;;;;;;14.93;54.50;96345.74;109226;1273;22547;-79
2023/03/22 12:45:04;;;;;;;;;;;;;;;14.96;54.86;96345.73;109171;1273;22516;-79
2023/03/22 12:47:40;;;;;;;;;;;;;;;15.00;55.09;96347.06;109170;1273;22506;-79
2023/03/22 12:50:12;;;;;;;;;;;;;;;15.05;54.61;96344.52;109189;1273;22498;-79
2023/03/22 12:52:44;;;;;;;;;;;;;;;15.00;54.14;96350.40;109115;1273;22499;-79
2023/03/22 12:55:20;;;;;;;;;;;;;;;14.99;54.63;96346.09;109117;1273;22563;-79
2023/03/22 12:57:51;;;;;;;;;;;;;;;15.04;55.21;96346.94;109153;1273;23033;-79
2023/03/22 13:00:27;;;;;;;;;;;;;;;15.05;54.68;96345.64;109118;1274;22496;-79
2023/03/22 13:02:59;;;;;;;;;;;;;;;14.93;54.77;96347.23;109101;1267;30553;-79